createdAt,value
2024-05-09T00:00:41.762Z,14.10
2024-05-09T00:01:40.875Z,14.20
2024-05-09T00:02:40.800Z,13.70
2024-05-09T00:03:40.872Z,14.90
2024-05-09T00:04:40.836Z,13.90
2024-05-09T00:05:41.076Z,13.70
2024-05-09T00:06:40.765Z,14.60
2024-05-09T00:07:40.760Z,15.20
2024-05-09T00:08:40.789Z,15.10
2024-05-09T00:09:40.783Z,13.20
2024-05-09T00:10:41.463Z,13.40
2024-05-09T00:11:40.946Z,15.40
2024-05-09T00:12:40.763Z,15.40
2024-05-09T00:13:40.711Z,15.30
2024-05-09T00:14:40.743Z,16.60
2024-05-09T00:15:40.736Z,18.90
2024-05-09T00:16:40.713Z,17.40
2024-05-09T00:17:41.025Z,17.40
2024-05-09T00:18:40.850Z,14.80
2024-05-09T00:19:40.658Z,14.40
2024-05-09T00:20:41.415Z,14.20
2024-05-09T00:21:41.146Z,13.40
2024-05-09T00:22:40.671Z,13.50
2024-05-09T00:23:40.736Z,12.70
2024-05-09T00:24:40.610Z,12.60
2024-05-09T00:25:40.607Z,14.20
2024-05-09T00:26:40.779Z,13.20
2024-05-09T00:27:40.663Z,12.90
2024-05-09T00:28:40.575Z,13.40
2024-05-09T00:29:40.579Z,14.50
2024-05-09T00:30:40.732Z,15.80
2024-05-09T00:31:40.587Z,12.30
2024-05-09T00:32:40.642Z,14.50
2024-05-09T00:33:40.805Z,14.40
2024-05-09T00:34:40.526Z,16.30
2024-05-09T00:35:40.524Z,13.90
2024-05-09T00:36:40.518Z,16.30
2024-05-09T00:37:40.561Z,16.60
2024-05-09T00:38:40.598Z,17.30
2024-05-09T00:39:40.522Z,15.80
2024-05-09T00:40:42.631Z,17.90
2024-05-09T00:41:40.647Z,18.30
2024-05-09T00:42:40.614Z,17.80
2024-05-09T00:43:40.479Z,18.00
2024-05-09T00:44:40.436Z,16.10
2024-05-09T00:45:40.468Z,17.30
2024-05-09T00:46:40.426Z,14.90
2024-05-09T00:47:40.795Z,17.40
2024-05-09T00:48:40.656Z,16.20
2024-05-09T00:49:40.676Z,16.10
2024-05-09T00:50:41.093Z,16.90
2024-05-09T00:51:40.391Z,16.40
2024-05-09T00:52:40.371Z,20.70
2024-05-09T00:53:40.480Z,17.90
2024-05-09T00:54:40.354Z,20.00
2024-05-09T00:55:40.413Z,18.30
2024-05-09T00:56:40.409Z,18.50
2024-05-09T00:57:40.339Z,15.50
2024-05-09T00:58:40.626Z,15.30
2024-05-09T00:59:40.377Z,18.40
2024-05-09T01:00:41.459Z,19.20
2024-05-09T01:01:40.566Z,17.80
2024-05-09T01:02:40.452Z,18.20
2024-05-09T01:03:40.615Z,20.00
2024-05-09T01:04:40.375Z,19.30
2024-05-09T01:05:40.679Z,22.00
2024-05-09T01:06:40.360Z,18.10
2024-05-09T01:07:40.363Z,20.70
2024-05-09T01:08:40.311Z,21.20
2024-05-09T01:09:40.242Z,18.80
2024-05-09T01:10:42.774Z,20.90
2024-05-09T01:11:40.394Z,17.70
2024-05-09T01:12:40.347Z,18.60
2024-05-09T01:13:40.221Z,17.10
2024-05-09T01:14:40.200Z,19.60
2024-05-09T01:15:40.269Z,19.70
2024-05-09T01:16:40.178Z,19.50
2024-05-09T01:17:40.637Z,19.80
2024-05-09T01:18:40.377Z,22.90
2024-05-09T01:19:40.289Z,20.00
2024-05-09T01:20:43.221Z,25.30
2024-05-09T01:21:40.176Z,21.70
2024-05-09T01:22:40.193Z,21.10
2024-05-09T01:23:40.205Z,20.50
2024-05-09T01:24:40.346Z,21.10
2024-05-09T01:25:40.111Z,23.10
2024-05-09T01:26:40.127Z,19.90
2024-05-09T01:27:40.091Z,22.50
2024-05-09T01:28:41.716Z,20.70
2024-05-09T01:29:40.109Z,20.80
2024-05-09T01:30:40.087Z,20.70
2024-05-09T01:31:40.098Z,20.60
2024-05-09T01:32:40.256Z,18.90
2024-05-09T01:33:40.199Z,18.00
2024-05-09T01:34:40.038Z,18.60
2024-05-09T01:35:40.071Z,22.00
2024-05-09T01:36:40.128Z,22.40
2024-05-09T01:37:40.001Z,22.00
2024-05-09T01:38:40.023Z,22.00
2024-05-09T01:39:39.992Z,23.70
2024-05-09T01:40:40.561Z,19.90
2024-05-09T01:41:39.965Z,22.00
2024-05-09T01:42:39.966Z,21.50
2024-05-09T01:43:39.977Z,18.80
2024-05-09T01:44:39.941Z,20.50
2024-05-09T01:45:40.216Z,66.20
2024-05-09T01:46:39.942Z,26.50
2024-05-09T01:47:40.038Z,35.00
2024-05-09T01:48:39.978Z,22.00
2024-05-09T01:49:39.988Z,29.90
2024-05-09T01:50:42.339Z,25.50
2024-05-09T01:51:39.915Z,26.50
2024-05-09T01:52:39.907Z,49.50
2024-05-09T01:53:39.939Z,158.50
2024-05-09T01:54:39.856Z,106.40
2024-05-09T01:55:39.847Z,79.00
2024-05-09T01:56:39.860Z,105.20
2024-05-09T01:57:39.877Z,124.80
2024-05-09T01:58:39.834Z,193.20
2024-05-09T01:59:39.955Z,174.40
2024-05-09T02:00:42.233Z,113.00
2024-05-09T02:01:55.887Z,42.20
2024-05-09T02:02:40.880Z,42.70
2024-05-09T02:03:39.903Z,488.00
2024-05-09T02:04:39.913Z,469.10
2024-05-09T02:05:39.845Z,255.80
2024-05-09T02:06:39.894Z,91.30
2024-05-09T02:07:39.735Z,61.50
2024-05-09T02:08:39.940Z,72.80
2024-05-09T02:09:39.725Z,59.40
2024-05-09T02:10:39.731Z,42.80
2024-05-09T02:11:39.901Z,35.20
2024-05-09T02:12:39.700Z,245.70
2024-05-09T02:13:39.795Z,128.60
2024-05-09T02:14:39.739Z,49.90
2024-05-09T02:15:39.694Z,70.40
2024-05-09T02:16:39.658Z,50.40
2024-05-09T02:17:39.879Z,47.40
2024-05-09T02:18:39.959Z,52.70
2024-05-09T02:19:39.698Z,117.00
2024-05-09T02:20:39.892Z,72.90
2024-05-09T02:21:39.615Z,86.90
2024-05-09T02:22:39.614Z,98.10
2024-05-09T02:23:39.663Z,81.20
2024-05-09T02:24:39.660Z,38.60
2024-05-09T02:25:39.577Z,41.80
2024-05-09T02:26:39.704Z,32.50
2024-05-09T02:27:39.713Z,37.80
2024-05-09T02:28:39.551Z,27.40
2024-05-09T02:29:39.630Z,41.80
2024-05-09T02:30:41.657Z,58.10
2024-05-09T02:31:39.560Z,78.70
2024-05-09T02:32:39.728Z,48.40
2024-05-09T02:33:39.700Z,72.30
2024-05-09T02:34:39.535Z,98.80
2024-05-09T02:35:39.899Z,47.60
2024-05-09T02:36:39.509Z,119.20
2024-05-09T02:37:39.470Z,82.00
2024-05-09T02:38:39.498Z,47.80
2024-05-09T02:39:39.526Z,68.60
2024-05-09T02:40:40.333Z,91.40
2024-05-09T02:41:39.540Z,104.20
2024-05-09T02:42:39.506Z,146.60
2024-05-09T02:43:39.422Z,234.30
2024-05-09T02:44:39.420Z,194.80
2024-05-09T02:45:39.706Z,124.10
2024-05-09T02:46:39.445Z,208.60
2024-05-09T02:47:39.732Z,249.40
2024-05-09T02:48:39.523Z,264.00
2024-05-09T02:49:39.439Z,299.00
2024-05-09T02:50:40.243Z,254.90
2024-05-09T02:51:39.378Z,199.70
2024-05-09T02:52:39.368Z,275.00
2024-05-09T02:53:39.423Z,285.70
2024-05-09T02:54:39.338Z,292.50
2024-05-09T02:55:39.336Z,194.20
2024-05-09T02:56:39.394Z,310.00
2024-05-09T02:57:39.372Z,226.40
2024-05-09T02:58:39.309Z,339.00
2024-05-09T02:59:39.306Z,466.60
2024-05-09T03:00:41.719Z,312.90
2024-05-09T03:01:39.347Z,339.00
2024-05-09T03:02:39.522Z,84.80
2024-05-09T03:03:39.544Z,406.80
2024-05-09T03:04:39.373Z,320.10
2024-05-09T03:05:39.629Z,257.20
2024-05-09T03:06:39.238Z,246.40
2024-05-09T03:07:39.331Z,114.90
2024-05-09T03:08:39.311Z,108.90
2024-05-09T03:09:39.368Z,169.70
2024-05-09T03:10:39.785Z,140.30
2024-05-09T03:11:39.336Z,126.80
2024-05-09T03:12:39.474Z,145.50
2024-05-09T03:13:39.193Z,115.90
2024-05-09T03:14:39.211Z,112.50
2024-05-09T03:15:39.697Z,158.30
2024-05-09T03:16:39.156Z,223.10
2024-05-09T03:17:39.306Z,202.40
2024-05-09T03:18:39.309Z,316.70
2024-05-09T03:19:39.188Z,213.50
2024-05-09T03:20:39.497Z,105.80
2024-05-09T03:21:39.252Z,187.70
2024-05-09T03:22:39.113Z,240.20
2024-05-09T03:23:39.257Z,407.90
2024-05-09T03:24:39.084Z,352.90
2024-05-09T03:25:39.119Z,214.30
2024-05-09T03:26:39.135Z,390.10
2024-05-09T03:27:39.130Z,292.20
2024-05-09T03:28:39.053Z,248.20
2024-05-09T03:29:39.095Z,207.00
2024-05-09T03:30:42.324Z,115.50
2024-05-09T03:31:39.044Z,507.30
2024-05-09T03:32:39.145Z,409.50
2024-05-09T03:33:39.277Z,410.50
2024-05-09T03:34:39.059Z,346.40
2024-05-09T03:35:39.075Z,338.60
2024-05-09T03:36:39.028Z,440.70
2024-05-09T03:37:39.022Z,532.40
2024-05-09T03:38:39.065Z,444.00
2024-05-09T03:39:38.958Z,321.30
2024-05-09T03:40:39.006Z,221.30
2024-05-09T03:41:38.959Z,274.20
2024-05-09T03:42:38.996Z,448.50
2024-05-09T03:43:38.926Z,179.10
2024-05-09T03:44:38.964Z,465.90
2024-05-09T03:45:38.907Z,593.30
2024-05-09T03:46:38.928Z,507.90
2024-05-09T03:47:38.967Z,437.30
2024-05-09T03:48:39.044Z,206.50
2024-05-09T03:49:38.929Z,219.90
2024-05-09T03:50:39.071Z,449.50
2024-05-09T03:51:38.852Z,161.40
2024-05-09T03:52:39.004Z,452.30
2024-05-09T03:53:38.954Z,374.90
2024-05-09T03:54:38.839Z,374.70
2024-05-09T03:55:38.905Z,293.60
2024-05-09T03:56:38.894Z,384.90
2024-05-09T03:57:38.793Z,445.10
2024-05-09T03:58:38.802Z,340.00
2024-05-09T03:59:38.850Z,294.70
2024-05-09T04:00:40.129Z,302.00
2024-05-09T04:01:38.817Z,396.70
2024-05-09T04:02:38.887Z,352.70
2024-05-09T04:03:38.857Z,394.10
2024-05-09T04:04:38.774Z,471.70
2024-05-09T04:05:38.770Z,450.50
2024-05-09T04:06:38.738Z,448.30
2024-05-09T04:07:38.747Z,186.00
2024-05-09T04:08:38.878Z,253.80
2024-05-09T04:09:38.733Z,381.40
2024-05-09T04:10:38.764Z,324.20
2024-05-09T04:11:38.857Z,220.60
2024-05-09T04:12:38.727Z,396.70
2024-05-09T04:13:38.721Z,487.70
2024-05-09T04:14:38.736Z,507.80
2024-05-09T04:15:38.671Z,393.90
2024-05-09T04:16:38.638Z,153.00
2024-05-09T04:17:38.791Z,413.30
2024-05-09T04:18:38.723Z,382.40
2024-05-09T04:19:38.743Z,373.50
2024-05-09T04:20:40.668Z,222.40
2024-05-09T04:21:38.608Z,346.10
2024-05-09T04:22:38.594Z,378.40
2024-05-09T04:23:38.594Z,335.30
2024-05-09T04:24:38.583Z,368.60
2024-05-09T04:25:38.608Z,178.20
2024-05-09T04:26:38.633Z,184.80
2024-05-09T04:27:38.554Z,273.60
2024-05-09T04:28:38.540Z,442.00
2024-05-09T04:29:38.750Z,354.10
2024-05-09T04:30:40.961Z,434.60
2024-05-09T04:31:38.555Z,447.00
2024-05-09T04:32:38.795Z,257.60
2024-05-09T04:33:38.623Z,332.70
2024-05-09T04:34:38.512Z,476.60
2024-05-09T04:35:38.900Z,433.30
2024-05-09T04:36:40.302Z,295.60
2024-05-09T04:37:38.505Z,217.20
2024-05-09T04:38:38.562Z,201.50
2024-05-09T04:39:38.445Z,251.20
2024-05-09T04:40:38.681Z,257.50
2024-05-09T04:41:38.512Z,299.00
2024-05-09T04:42:38.455Z,385.70
2024-05-09T04:43:38.465Z,292.10
2024-05-09T04:44:38.439Z,211.30
2024-05-09T04:45:38.471Z,481.00
2024-05-09T04:46:39.171Z,383.20
2024-05-09T04:47:38.712Z,270.70
2024-05-09T04:48:38.473Z,183.60
2024-05-09T04:49:38.415Z,215.80
2024-05-09T04:50:39.671Z,255.60
2024-05-09T04:51:38.379Z,199.90
2024-05-09T04:52:38.329Z,258.70
2024-05-09T04:53:38.483Z,397.40
2024-05-09T04:54:38.318Z,261.80
2024-05-09T04:55:38.567Z,254.10
2024-05-09T04:56:38.328Z,181.10
2024-05-09T04:57:38.292Z,258.70
2024-05-09T04:58:38.269Z,158.80
2024-05-09T04:59:38.361Z,388.40
2024-05-09T05:00:39.293Z,329.60
2024-05-09T05:01:38.423Z,249.20
2024-05-09T05:02:38.314Z,266.80
2024-05-09T05:03:39.480Z,190.80
2024-05-09T05:04:38.281Z,214.70
2024-05-09T05:05:38.829Z,180.70
2024-05-09T05:06:38.234Z,224.80
2024-05-09T05:07:38.212Z,360.00
2024-05-09T05:08:38.318Z,258.50
2024-05-09T05:09:38.193Z,431.20
2024-05-09T05:10:38.265Z,553.60
2024-05-09T05:11:38.436Z,235.00
2024-05-09T05:12:38.154Z,399.40
2024-05-09T05:13:41.359Z,549.50
2024-05-09T05:14:38.220Z,95.80
2024-05-09T05:15:38.142Z,192.90
2024-05-09T05:16:38.144Z,640.30
2024-05-09T05:17:38.628Z,331.00
2024-05-09T05:18:38.253Z,328.30
2024-05-09T05:19:38.374Z,164.70
2024-05-09T05:20:38.188Z,190.30
2024-05-09T05:21:38.084Z,392.50
2024-05-09T05:22:38.083Z,359.10
2024-05-09T05:23:38.580Z,325.50
2024-05-09T05:24:38.072Z,268.90
2024-05-09T05:25:38.071Z,267.80
2024-05-09T05:26:38.094Z,215.50
2024-05-09T05:27:38.046Z,221.70
2024-05-09T05:28:38.060Z,550.30
2024-05-09T05:29:38.189Z,348.20
2024-05-09T05:30:38.076Z,327.60
2024-05-09T05:31:38.024Z,85.30
2024-05-09T05:32:38.209Z,73.20
2024-05-09T05:33:38.259Z,223.50
2024-05-09T05:34:37.980Z,195.20
2024-05-09T05:35:38.043Z,224.20
2024-05-09T05:36:37.997Z,267.70
2024-05-09T05:37:37.959Z,252.00
2024-05-09T05:38:38.030Z,197.00
2024-05-09T05:39:37.959Z,255.40
2024-05-09T05:40:39.074Z,256.20
2024-05-09T05:41:37.963Z,396.20
2024-05-09T05:42:37.923Z,310.50
2024-05-09T05:43:37.936Z,250.40
2024-05-09T05:44:37.987Z,200.70
2024-05-09T05:45:38.214Z,344.20
2024-05-09T05:46:37.895Z,244.00
2024-05-09T05:47:38.110Z,174.60
2024-05-09T05:48:38.006Z,168.70
2024-05-09T05:49:38.115Z,191.20
2024-05-09T05:50:38.742Z,258.20
2024-05-09T05:51:37.828Z,275.10
2024-05-09T05:52:37.854Z,510.50
2024-05-09T05:53:37.900Z,220.80
2024-05-09T05:54:37.813Z,215.60
2024-05-09T05:55:37.904Z,165.80
2024-05-09T05:56:37.892Z,239.40
2024-05-09T05:57:37.793Z,345.00
2024-05-09T05:58:37.789Z,186.40
2024-05-09T05:59:37.947Z,320.00
2024-05-09T06:00:40.106Z,264.90
2024-05-09T06:01:37.923Z,232.40
2024-05-09T06:02:37.878Z,158.50
2024-05-09T06:03:37.879Z,270.20
2024-05-09T06:04:37.805Z,281.40
2024-05-09T06:05:37.777Z,260.70
2024-05-09T06:06:37.752Z,97.70
2024-05-09T06:07:37.722Z,273.50
2024-05-09T06:08:37.689Z,218.10
2024-05-09T06:09:37.735Z,586.80
2024-05-09T06:10:40.173Z,252.20
2024-05-09T06:11:37.776Z,398.80
2024-05-09T06:12:37.677Z,100.70
2024-05-09T06:13:37.664Z,217.50
2024-05-09T06:14:38.082Z,360.70
2024-05-09T06:15:37.967Z,180.80
2024-05-09T06:16:37.648Z,103.40
2024-05-09T06:17:37.763Z,81.80
2024-05-09T06:18:37.835Z,185.50
2024-05-09T06:19:37.700Z,618.60
2024-05-09T06:20:38.476Z,168.20
2024-05-09T06:21:38.073Z,333.90
2024-05-09T06:22:38.424Z,319.30
2024-05-09T06:23:38.338Z,499.80
2024-05-09T06:24:37.599Z,361.30
2024-05-09T06:25:38.060Z,289.60
2024-05-09T06:26:37.598Z,122.40
2024-05-09T06:27:37.822Z,209.40
2024-05-09T06:28:37.529Z,85.60
2024-05-09T06:29:37.674Z,270.00
2024-05-09T06:30:40.094Z,49.20
2024-05-09T06:31:37.535Z,116.60
2024-05-09T06:32:37.676Z,86.50
2024-05-09T06:33:37.679Z,61.20
2024-05-09T06:34:37.511Z,221.70
2024-05-09T06:35:37.603Z,64.50
2024-05-09T06:36:37.547Z,232.30
2024-05-09T06:37:37.479Z,91.70
2024-05-09T06:38:37.620Z,108.90
2024-05-09T06:39:37.616Z,105.20
2024-05-09T06:40:39.672Z,153.80
2024-05-09T06:41:37.525Z,85.00
2024-05-09T06:42:37.475Z,57.70
2024-05-09T06:43:37.864Z,68.60
2024-05-09T06:44:37.894Z,119.80
2024-05-09T06:45:37.647Z,136.10
2024-05-09T06:46:37.378Z,116.50
2024-05-09T06:47:37.531Z,45.50
2024-05-09T06:48:37.642Z,60.90
2024-05-09T06:49:37.412Z,199.30
2024-05-09T06:50:39.074Z,52.00
2024-05-09T06:51:38.371Z,46.60
2024-05-09T06:52:37.381Z,57.60
2024-05-09T06:53:37.931Z,22.00
2024-05-09T06:54:37.320Z,23.00
2024-05-09T06:55:37.640Z,23.50
2024-05-09T06:56:37.387Z,23.80
2024-05-09T06:57:39.171Z,18.60
2024-05-09T06:58:37.342Z,22.30
2024-05-09T06:59:37.348Z,15.90
2024-05-09T07:00:40.177Z,19.70
2024-05-09T07:01:37.284Z,37.40
2024-05-09T07:02:37.616Z,20.10
2024-05-09T07:03:37.373Z,21.70
2024-05-09T07:04:37.467Z,16.40
2024-05-09T07:05:38.793Z,35.50
2024-05-09T07:06:37.922Z,19.80
2024-05-09T07:07:37.598Z,17.90
2024-05-09T07:08:37.240Z,15.00
2024-05-09T07:09:37.207Z,12.20
2024-05-09T07:10:37.971Z,13.30
2024-05-09T07:11:37.755Z,14.60
2024-05-09T07:12:38.001Z,16.20
2024-05-09T07:13:37.539Z,15.10
2024-05-09T07:14:38.376Z,13.10
2024-05-09T07:15:37.183Z,11.20
2024-05-09T07:16:37.295Z,11.20
2024-05-09T07:17:37.688Z,12.30
2024-05-09T07:18:37.646Z,10.70
2024-05-09T07:19:46.825Z,10.80
2024-05-09T07:20:37.545Z,11.70
2024-05-09T07:21:37.090Z,11.80
2024-05-09T07:22:37.833Z,10.10
2024-05-09T07:23:37.234Z,10.60
2024-05-09T07:24:37.102Z,12.00
2024-05-09T07:25:37.518Z,9.30
2024-05-09T07:26:37.282Z,10.50
2024-05-09T07:27:37.166Z,9.60
2024-05-09T07:28:37.418Z,10.10
2024-05-09T07:29:38.909Z,10.20
2024-05-09T07:30:37.069Z,11.50
2024-05-09T07:31:37.725Z,9.70
2024-05-09T07:32:37.649Z,10.50
2024-05-09T07:33:37.130Z,9.90
2024-05-09T07:34:37.638Z,10.10
2024-05-09T07:35:37.160Z,10.60
2024-05-09T07:36:36.995Z,10.30
2024-05-09T07:37:37.003Z,9.50
2024-05-09T07:38:37.155Z,10.80
2024-05-09T07:39:37.457Z,9.90
2024-05-09T07:40:37.495Z,9.60
2024-05-09T07:41:37.121Z,10.40
2024-05-09T07:42:37.478Z,11.10
2024-05-09T07:43:36.986Z,10.80
2024-05-09T07:44:37.363Z,10.80
2024-05-09T07:45:48.464Z,11.10
2024-05-09T07:47:47.280Z,10.10
2024-05-09T07:48:58.024Z,9.90
2024-05-09T07:50:34.657Z,14.20
2024-05-09T07:53:14.247Z,11.00
2024-05-09T07:53:33.626Z,10.60
2024-05-09T07:53:43.370Z,10.60
2024-05-09T07:54:38.138Z,9.20
2024-05-09T07:55:37.351Z,8.90
2024-05-09T07:56:37.474Z,10.30
2024-05-09T07:57:37.245Z,10.30
2024-05-09T07:58:36.823Z,8.20
2024-05-09T07:59:38.055Z,9.80
2024-05-09T08:00:37.520Z,9.00
2024-05-09T08:01:36.964Z,9.30
2024-05-09T08:02:36.783Z,9.90
2024-05-09T08:03:36.881Z,9.40
2024-05-09T08:04:36.846Z,8.40
2024-05-09T08:05:37.188Z,9.20
2024-05-09T08:06:36.811Z,8.70
2024-05-09T08:07:36.770Z,7.90
2024-05-09T08:08:37.256Z,11.00
2024-05-09T08:09:38.389Z,8.90
2024-05-09T08:10:36.857Z,9.30
2024-05-09T08:11:36.715Z,8.00
2024-05-09T08:12:36.698Z,9.10
2024-05-09T08:13:36.940Z,9.30
2024-05-09T08:14:36.663Z,9.70
2024-05-09T08:15:36.745Z,8.10
2024-05-09T08:16:36.750Z,9.10
2024-05-09T08:17:36.729Z,9.90
2024-05-09T08:18:36.806Z,8.90
2024-05-09T08:19:36.729Z,10.10
2024-05-09T08:20:36.653Z,8.90
2024-05-09T08:21:36.690Z,7.70
2024-05-09T08:22:36.600Z,9.50
2024-05-09T08:23:36.605Z,9.40
2024-05-09T08:24:36.646Z,10.90
2024-05-09T08:25:37.258Z,10.90
2024-05-09T08:26:36.597Z,11.00
2024-05-09T08:27:36.579Z,11.00
2024-05-09T08:28:36.547Z,9.50
2024-05-09T08:29:36.565Z,9.90
2024-05-09T08:30:38.257Z,9.60
2024-05-09T08:31:36.637Z,9.40
2024-05-09T08:32:36.568Z,10.80
2024-05-09T08:33:36.927Z,8.00
2024-05-09T08:34:36.578Z,9.10
2024-05-09T08:35:36.503Z,7.70
2024-05-09T08:36:36.498Z,10.80
2024-05-09T08:37:38.936Z,8.90
2024-05-09T08:38:36.472Z,8.00
2024-05-09T08:39:36.630Z,8.40
2024-05-09T08:40:37.866Z,9.20
2024-05-09T08:41:36.460Z,8.70
2024-05-09T08:42:36.466Z,7.90
2024-05-09T08:43:39.031Z,8.70
2024-05-09T08:44:36.412Z,9.60
2024-05-09T08:45:36.622Z,8.70
2024-05-09T08:46:36.427Z,8.30
2024-05-09T08:47:36.505Z,10.30
2024-05-09T08:48:36.555Z,8.80
2024-05-09T08:49:37.707Z,8.30
2024-05-09T08:50:39.163Z,9.40
2024-05-09T08:51:36.381Z,8.20
2024-05-09T08:52:36.351Z,9.60
2024-05-09T08:53:36.365Z,7.20
2024-05-09T08:54:36.358Z,8.20
2024-05-09T08:55:39.437Z,9.80
2024-05-09T08:56:38.290Z,7.30
2024-05-09T08:57:36.353Z,11.60
2024-05-09T08:58:36.424Z,8.00
2024-05-09T08:59:36.298Z,9.60
2024-05-09T09:00:37.629Z,8.30
2024-05-09T09:01:38.038Z,9.70
2024-05-09T09:02:36.404Z,8.60
2024-05-09T09:03:36.711Z,9.60
2024-05-09T09:04:36.328Z,9.50
2024-05-09T09:05:37.045Z,7.20
2024-05-09T09:06:36.239Z,7.10
2024-05-09T09:07:36.325Z,7.10
2024-05-09T09:08:36.207Z,6.90
2024-05-09T09:09:36.255Z,7.70
2024-05-09T09:10:36.376Z,8.60
2024-05-09T09:11:36.284Z,9.20
2024-05-09T09:12:36.219Z,10.50
2024-05-09T09:13:36.170Z,68.60
2024-05-09T09:14:36.150Z,32.70
2024-05-09T09:15:36.391Z,16.60
2024-05-09T09:16:36.135Z,10.50
2024-05-09T09:17:36.279Z,6.90
2024-05-09T09:18:36.345Z,7.80
2024-05-09T09:19:36.268Z,7.50
2024-05-09T09:20:37.131Z,6.80
2024-05-09T09:21:36.227Z,6.50
2024-05-09T09:22:36.096Z,6.00
2024-05-09T09:23:36.138Z,6.20
2024-05-09T09:24:36.082Z,7.30
2024-05-09T09:25:36.188Z,6.40
2024-05-09T09:26:36.101Z,8.80
2024-05-09T09:27:36.191Z,4.90
2024-05-09T09:28:36.035Z,6.60
2024-05-09T09:29:36.050Z,6.10
2024-05-09T09:30:37.961Z,6.30
2024-05-09T09:31:36.085Z,7.10
2024-05-09T09:32:36.148Z,7.30
2024-05-09T09:33:36.579Z,7.80
2024-05-09T09:34:36.058Z,7.20
2024-05-09T09:35:35.998Z,6.40
2024-05-09T09:36:35.995Z,6.50
2024-05-09T09:37:35.992Z,6.50
2024-05-09T09:38:35.977Z,8.20
2024-05-09T09:39:35.980Z,6.90
2024-05-09T09:40:38.924Z,7.20
2024-05-09T09:41:36.940Z,7.80
2024-05-09T09:42:36.346Z,7.80
2024-05-09T09:43:35.942Z,6.60
2024-05-09T09:44:39.527Z,7.30
2024-05-09T09:45:37.003Z,7.70
2024-05-09T09:46:35.948Z,6.70
2024-05-09T09:47:35.933Z,7.10
2024-05-09T09:48:36.537Z,7.60
2024-05-09T09:49:35.929Z,6.50
2024-05-09T09:50:35.882Z,7.20
2024-05-09T09:51:35.901Z,6.60
2024-05-09T09:52:35.855Z,7.90
2024-05-09T09:53:35.991Z,7.10
2024-05-09T09:54:35.884Z,6.60
2024-05-09T09:55:36.794Z,6.90
2024-05-09T09:56:35.823Z,6.60
2024-05-09T09:57:35.930Z,8.00
2024-05-09T09:58:35.907Z,8.70
2024-05-09T09:59:35.850Z,7.90
2024-05-09T10:00:35.982Z,6.90
2024-05-09T10:01:36.045Z,5.80
2024-05-09T10:02:36.046Z,7.00
2024-05-09T10:03:36.034Z,8.00
2024-05-09T10:04:35.830Z,6.50
2024-05-09T10:05:35.911Z,5.50
2024-05-09T10:06:35.759Z,7.10
2024-05-09T10:07:35.754Z,6.10
2024-05-09T10:08:35.711Z,5.60
2024-05-09T10:09:35.734Z,5.10
2024-05-09T10:10:36.044Z,5.30
2024-05-09T10:11:42.077Z,5.60
2024-05-09T10:12:36.810Z,5.30
2024-05-09T10:13:35.802Z,5.70
2024-05-09T10:14:35.700Z,7.30
2024-05-09T10:15:35.775Z,6.10
2024-05-09T10:16:35.688Z,5.80
2024-05-09T10:17:35.782Z,6.20
2024-05-09T10:18:35.782Z,6.20
2024-05-09T10:19:35.699Z,5.60
2024-05-09T10:20:35.697Z,6.10
2024-05-09T10:21:35.793Z,7.00
2024-05-09T10:22:35.642Z,5.40
2024-05-09T10:23:35.771Z,6.10
2024-05-09T10:24:35.611Z,6.50
2024-05-09T10:25:35.609Z,7.10
2024-05-09T10:26:35.627Z,5.60
2024-05-09T10:27:35.668Z,6.10
2024-05-09T10:28:35.999Z,5.70
2024-05-09T10:29:35.618Z,5.10
2024-05-09T10:30:36.584Z,6.20
2024-05-09T10:31:35.629Z,6.40
2024-05-09T10:32:35.594Z,6.00
2024-05-09T10:33:35.682Z,6.00
2024-05-09T10:34:35.580Z,6.50
2024-05-09T10:35:35.653Z,6.20
2024-05-09T10:36:35.511Z,6.00
2024-05-09T10:37:35.621Z,6.10
2024-05-09T10:38:35.495Z,4.90
2024-05-09T10:39:35.562Z,6.50
2024-05-09T10:40:35.550Z,5.30
2024-05-09T10:41:35.470Z,6.00
2024-05-09T10:42:45.354Z,6.10
2024-05-09T10:43:35.438Z,7.30
2024-05-09T10:44:35.427Z,5.20
2024-05-09T10:45:35.493Z,6.00
2024-05-09T10:46:35.408Z,5.90
2024-05-09T10:47:35.468Z,5.60
2024-05-09T10:48:35.476Z,5.40
2024-05-09T10:49:35.461Z,5.90
2024-05-09T10:50:35.440Z,6.70
2024-05-09T10:51:35.436Z,8.00
2024-05-09T10:52:35.372Z,6.40
2024-05-09T10:53:35.375Z,5.30
2024-05-09T10:54:35.428Z,5.20
2024-05-09T10:55:35.401Z,5.10
2024-05-09T10:56:35.329Z,5.50
2024-05-09T10:57:35.340Z,4.80
2024-05-09T10:58:35.307Z,6.60
2024-05-09T10:59:35.327Z,5.90
2024-05-09T11:00:36.439Z,4.90
2024-05-09T11:01:35.430Z,5.90
2024-05-09T11:02:35.415Z,5.40
2024-05-09T11:03:35.854Z,4.10
2024-05-09T11:04:35.312Z,4.90
2024-05-09T11:05:35.425Z,5.40
2024-05-09T11:06:35.355Z,6.10
2024-05-09T11:07:35.234Z,6.30
2024-05-09T11:08:35.252Z,4.80
2024-05-09T11:09:35.250Z,5.20
2024-05-09T11:10:35.306Z,4.80
2024-05-09T11:11:36.970Z,5.80
2024-05-09T11:12:35.271Z,4.80
2024-05-09T11:13:35.240Z,5.40
2024-05-09T11:14:35.200Z,4.80
2024-05-09T11:15:35.209Z,4.60
2024-05-09T11:16:35.155Z,4.60
2024-05-09T11:17:35.345Z,4.50
2024-05-09T11:18:38.208Z,4.00
2024-05-09T11:19:35.333Z,4.50
2024-05-09T11:20:35.654Z,4.30
2024-05-09T11:21:35.153Z,4.40
2024-05-09T11:22:35.176Z,5.00
2024-05-09T11:23:35.138Z,4.10
2024-05-09T11:24:35.116Z,4.70
2024-05-09T11:25:35.108Z,5.10
2024-05-09T11:26:35.085Z,4.80
2024-05-09T11:27:35.134Z,4.80
2024-05-09T11:28:35.204Z,4.20
2024-05-09T11:29:35.129Z,4.00
2024-05-09T11:30:35.097Z,5.10
2024-05-09T11:31:35.112Z,5.10
2024-05-09T11:32:35.222Z,5.30
2024-05-09T11:33:35.084Z,5.00
2024-05-09T11:34:35.153Z,4.80
2024-05-09T11:35:35.022Z,6.00
2024-05-09T11:36:35.076Z,6.10
2024-05-09T11:37:37.167Z,5.90
2024-05-09T11:38:35.025Z,5.60
2024-05-09T11:39:35.070Z,5.00
2024-05-09T11:40:35.113Z,5.10
2024-05-09T11:41:34.982Z,6.00
2024-05-09T11:42:35.010Z,4.60
2024-05-09T11:43:35.073Z,5.30
2024-05-09T11:44:34.979Z,4.00
2024-05-09T11:45:35.061Z,6.00
2024-05-09T11:46:34.966Z,7.10
2024-05-09T11:47:35.050Z,8.00
2024-05-09T11:48:35.113Z,8.60
2024-05-09T11:49:35.118Z,6.00
2024-05-09T11:50:36.108Z,6.90
2024-05-09T11:51:34.960Z,7.30
2024-05-09T11:52:34.902Z,4.70
2024-05-09T11:53:34.874Z,5.60
2024-05-09T11:54:34.918Z,5.90
2024-05-09T11:55:34.896Z,5.70
2024-05-09T11:56:34.890Z,5.70
2024-05-09T11:57:34.875Z,5.90
2024-05-09T11:58:35.037Z,6.10
2024-05-09T11:59:34.887Z,6.50
2024-05-09T12:00:37.426Z,6.30
2024-05-09T12:01:34.974Z,6.00
2024-05-09T12:02:34.908Z,5.60
2024-05-09T12:03:35.110Z,5.60
2024-05-09T12:04:34.925Z,5.90
2024-05-09T12:05:35.058Z,4.20
2024-05-09T12:06:34.853Z,4.50
2024-05-09T12:07:34.953Z,5.50
2024-05-09T12:08:34.772Z,5.60
2024-05-09T12:09:34.818Z,5.20
2024-05-09T12:10:36.317Z,5.50
2024-05-09T12:11:34.768Z,8.30
2024-05-09T12:12:37.117Z,5.60
2024-05-09T12:13:34.998Z,5.80
2024-05-09T12:14:34.732Z,5.10
2024-05-09T12:15:34.783Z,5.20
2024-05-09T12:16:34.767Z,5.70
2024-05-09T12:17:34.780Z,4.50
2024-05-09T12:18:34.892Z,6.00
2024-05-09T12:19:34.770Z,5.30
2024-05-09T12:20:37.899Z,5.00
2024-05-09T12:21:35.721Z,6.30
2024-05-09T12:22:34.666Z,6.90
2024-05-09T12:23:34.669Z,6.10
2024-05-09T12:24:34.727Z,5.90
2024-05-09T12:25:34.649Z,4.90
2024-05-09T12:26:34.644Z,5.40
2024-05-09T12:27:34.706Z,5.80
2024-05-09T12:28:35.461Z,5.90
2024-05-09T12:29:37.536Z,4.00
2024-05-09T12:30:38.470Z,6.20
2024-05-09T12:31:35.620Z,6.00
2024-05-09T12:32:34.711Z,4.80
2024-05-09T12:33:34.719Z,4.90
2024-05-09T12:34:34.676Z,4.80
2024-05-09T12:35:34.884Z,5.60
2024-05-09T12:36:34.682Z,6.20
2024-05-09T12:37:34.579Z,5.10
2024-05-09T12:38:34.538Z,4.60
2024-05-09T12:39:34.536Z,6.30
2024-05-09T12:40:37.630Z,4.60
2024-05-09T12:41:34.616Z,4.40
2024-05-09T12:42:34.526Z,4.00
2024-05-09T12:43:34.506Z,4.20
2024-05-09T12:44:34.480Z,3.60
2024-05-09T12:45:34.561Z,5.40
2024-05-09T12:46:34.486Z,6.00
2024-05-09T12:47:34.544Z,5.00
2024-05-09T12:48:34.685Z,4.20
2024-05-09T12:49:34.569Z,6.00
2024-05-09T12:50:34.942Z,4.70
2024-05-09T12:51:34.468Z,5.30
2024-05-09T12:52:34.561Z,8.10
2024-05-09T12:53:34.575Z,5.70
2024-05-09T12:54:34.455Z,5.30
2024-05-09T12:55:41.456Z,6.50
2024-05-09T12:56:35.390Z,7.90